createdAt,value
2019-01-11T00:14:30.524Z,91.00
2019-01-11T00:44:09.352Z,91.40
2019-01-11T00:46:13.189Z,91.40
2019-01-11T00:59:56.998Z,91.70
2019-01-11T01:02:02.076Z,91.70
2019-01-11T01:14:57.043Z,91.90
2019-01-11T01:29:39.247Z,92.20
2019-01-11T01:34:01.667Z,92.40
2019-01-11T01:40:59.548Z,92.40
2019-01-11T01:43:05.020Z,92.60
2019-01-11T02:32:54.706Z,93.10
2019-01-11T03:11:48.205Z,93.10
2019-01-11T03:23:38.689Z,92.40
2019-01-11T03:38:32.662Z,92.00
2019-01-11T03:55:09.134Z,92.80
2019-01-11T04:11:26.894Z,92.10
2019-01-11T04:13:30.837Z,91.70
2019-01-11T04:33:20.252Z,92.30
2019-01-11T04:56:57.666Z,92.00
2019-01-11T05:01:25.666Z,92.20
2019-01-11T05:11:08.951Z,91.90
2019-01-11T05:27:01.644Z,90.90
2019-01-11T05:40:16.298Z,91.00
2019-01-11T06:08:50.071Z,91.10
2019-01-11T06:22:56.933Z,91.00
2019-01-11T06:25:00.624Z,91.20
2019-01-11T06:41:44.503Z,91.30
2019-01-11T06:43:49.767Z,91.40
2019-01-11T07:12:12.626Z,91.60
2019-01-11T07:19:35.945Z,91.20
2019-01-11T07:21:41.579Z,91.40
2019-01-11T07:23:45.151Z,92.00
2019-01-11T07:25:48.773Z,92.00
2019-01-11T07:27:56.848Z,92.20
2019-01-11T07:30:00.591Z,92.10
2019-01-11T07:32:04.659Z,92.10
2019-01-11T07:34:08.465Z,92.50
2019-01-11T07:36:13.824Z,92.70
2019-01-11T07:38:17.432Z,93.40
2019-01-11T07:40:21.266Z,93.70
2019-01-11T07:42:26.551Z,94.10
2019-01-11T07:44:30.781Z,94.30
2019-01-11T07:46:34.437Z,95.30
2019-01-11T07:48:39.254Z,95.50
2019-01-11T07:50:49.166Z,95.60
2019-01-11T07:52:48.357Z,95.80
2019-01-11T07:54:52.135Z,96.80
2019-01-11T07:56:55.878Z,97.60
2019-01-11T07:58:59.707Z,98.40
2019-01-11T08:01:03.494Z,99.10
2019-01-11T08:03:07.222Z,99.40
2019-01-11T08:05:11.317Z,99.90
2019-01-11T08:07:15.041Z,99.90
2019-01-11T08:09:18.804Z,99.90
2019-01-11T08:11:22.590Z,99.90
2019-01-11T08:13:26.299Z,99.90
2019-01-11T08:15:30.098Z,99.90
2019-01-11T08:17:33.871Z,99.90
2019-01-11T08:19:37.502Z,99.90
2019-01-11T08:21:41.268Z,99.90
2019-01-11T08:23:44.997Z,99.90
2019-01-11T08:25:48.737Z,99.90
2019-01-11T08:27:52.534Z,99.90
2019-01-11T08:29:56.397Z,99.90
2019-01-11T08:32:00.190Z,99.90
2019-01-11T08:34:04.391Z,99.90
2019-01-11T08:36:08.156Z,99.90
2019-01-11T08:38:12.135Z,99.90
2019-01-11T08:40:15.860Z,99.90
2019-01-11T08:42:19.734Z,99.90
2019-01-11T08:44:23.384Z,99.90
2019-01-11T08:46:27.215Z,99.90
2019-01-11T08:48:30.949Z,99.90
2019-01-11T08:50:34.788Z,99.90
2019-01-11T08:52:38.467Z,99.90
2019-01-11T08:54:42.259Z,99.90
2019-01-11T08:56:46.054Z,99.90
2019-01-11T08:58:50.694Z,99.90
2019-01-11T09:00:54.572Z,99.90
2019-01-11T09:02:58.382Z,99.90
2019-01-11T09:05:02.108Z,99.90
2019-01-11T09:07:06.065Z,99.90
2019-01-11T09:09:09.981Z,99.90
2019-01-11T09:11:13.757Z,99.90
2019-01-11T09:13:17.561Z,99.90
2019-01-11T09:15:21.366Z,99.90
2019-01-11T09:17:25.117Z,99.90
2019-01-11T09:19:28.848Z,99.90
2019-01-11T09:21:34.114Z,99.90
2019-01-11T09:23:37.821Z,99.90
2019-01-11T09:25:41.591Z,99.90
2019-01-11T09:27:45.290Z,99.90
2019-01-11T09:29:49.161Z,99.90
2019-01-11T09:31:52.965Z,99.90
2019-01-11T09:33:56.751Z,99.90
2019-01-11T09:36:00.437Z,99.90
2019-01-11T09:38:04.237Z,99.90
2019-01-11T09:40:09.248Z,99.90
2019-01-11T09:42:14.203Z,99.90
2019-01-11T09:44:17.881Z,99.90
2019-01-11T09:46:21.647Z,99.90
2019-01-11T09:48:25.459Z,99.90
2019-01-11T09:50:29.182Z,99.90
2019-01-11T09:52:32.885Z,99.90
2019-01-11T09:54:36.615Z,99.90
2019-01-11T09:56:40.361Z,99.90
2019-01-11T09:58:44.062Z,99.90
2019-01-11T10:00:48.051Z,99.90
2019-01-11T10:02:59.570Z,99.90
2019-01-11T10:05:04.397Z,99.90
2019-01-11T10:07:12.431Z,99.90
2019-01-11T10:09:16.145Z,99.90
2019-01-11T10:11:19.934Z,99.90
2019-01-11T10:13:23.741Z,99.90
2019-01-11T10:15:27.855Z,99.90
2019-01-11T10:17:31.499Z,99.90
2019-01-11T10:19:35.748Z,99.90
2019-01-11T10:21:40.165Z,99.90
2019-01-11T10:23:43.953Z,99.90
2019-01-11T10:25:47.673Z,99.90
2019-01-11T10:27:51.465Z,99.90
2019-01-11T10:29:55.157Z,99.90
2019-01-11T10:31:58.896Z,99.90
2019-01-11T10:34:02.724Z,99.90
2019-01-11T10:36:06.586Z,99.90
2019-01-11T10:38:10.317Z,99.90
2019-01-11T10:40:16.156Z,99.90
2019-01-11T10:42:20.222Z,99.90
2019-01-11T10:44:23.969Z,99.90
2019-01-11T10:46:29.357Z,99.90
2019-01-11T10:48:32.979Z,99.90
2019-01-11T10:50:36.766Z,99.90
2019-01-11T10:52:40.576Z,99.90
2019-01-11T10:54:44.413Z,99.90
2019-01-11T10:56:48.144Z,99.90
2019-01-11T10:58:53.438Z,99.90
2019-01-11T11:00:57.123Z,99.90
2019-01-11T11:03:01.675Z,99.90
2019-01-11T11:05:06.302Z,99.90
2019-01-11T11:07:10.079Z,99.90
2019-01-11T11:09:13.732Z,99.90
2019-01-11T11:11:17.508Z,99.90
2019-01-11T11:13:21.098Z,99.90
2019-01-11T11:15:24.925Z,99.90
2019-01-11T11:17:28.752Z,99.90
2019-01-11T11:19:32.549Z,99.90
2019-01-11T11:21:36.312Z,99.90
2019-01-11T11:23:39.997Z,99.90
2019-01-11T11:25:43.852Z,99.90
2019-01-11T11:27:47.600Z,99.90
2019-01-11T11:29:51.406Z,99.90
2019-01-11T11:31:54.984Z,99.90
2019-01-11T11:33:58.692Z,99.90
2019-01-11T11:36:04.200Z,99.90
2019-01-11T11:38:07.881Z,99.90
2019-01-11T11:40:11.984Z,99.90
2019-01-11T11:42:16.879Z,99.90
2019-01-11T11:44:20.696Z,99.90
2019-01-11T11:46:24.510Z,99.90
2019-01-11T11:48:28.286Z,99.90
2019-01-11T11:50:32.168Z,99.90
2019-01-11T11:52:37.098Z,99.90
2019-01-11T11:54:40.913Z,99.90
2019-01-11T11:56:44.703Z,99.90
2019-01-11T11:58:48.542Z,99.90
2019-01-11T12:00:52.314Z,99.90
2019-01-11T12:02:56.057Z,99.90
2019-01-11T12:04:59.735Z,99.90
2019-01-11T12:07:07.627Z,99.90
2019-01-11T12:09:09.976Z,99.90
2019-01-11T12:11:13.757Z,99.90
2019-01-11T12:13:17.481Z,99.90
2019-01-11T12:15:21.157Z,99.90
2019-01-11T12:17:24.954Z,99.90
2019-01-11T12:19:28.628Z,99.90
2019-01-11T12:21:32.617Z,99.90
2019-01-11T12:23:36.446Z,99.90
2019-01-11T12:28:03.134Z,99.90
2019-01-11T12:29:56.512Z,99.90
2019-01-11T12:32:01.022Z,99.90
2019-01-11T12:34:04.938Z,99.90
2019-01-11T12:36:08.675Z,99.90
2019-01-11T12:38:15.215Z,99.90
2019-01-11T12:40:19.056Z,99.90
2019-01-11T12:42:22.767Z,99.90
2019-01-11T12:44:28.152Z,99.90
2019-01-11T12:46:31.863Z,99.90
2019-01-11T12:48:35.506Z,99.90
2019-01-11T12:50:39.254Z,99.90
2019-01-11T12:52:43.022Z,99.90
2019-01-11T12:54:46.752Z,99.90
2019-01-11T12:56:50.571Z,99.90
2019-01-11T12:58:54.349Z,99.90
2019-01-11T13:00:58.086Z,99.90
2019-01-11T13:03:01.719Z,99.90
2019-01-11T13:05:08.052Z,99.90
2019-01-11T13:07:11.839Z,99.90
2019-01-11T13:09:15.579Z,99.90
2019-01-11T13:11:19.258Z,99.90
2019-01-11T13:13:23.059Z,99.90
2019-01-11T13:15:26.856Z,99.90
2019-01-11T13:17:30.889Z,99.90
2019-01-11T13:19:34.643Z,99.90
2019-01-11T13:21:38.325Z,99.90
2019-01-11T13:23:43.735Z,99.90
2019-01-11T13:25:47.453Z,99.90
2019-01-11T13:27:51.372Z,99.90
2019-01-11T13:29:55.137Z,99.90
2019-01-11T13:31:58.967Z,99.90
2019-01-11T13:34:02.744Z,99.90
2019-01-11T13:36:08.131Z,99.90
2019-01-11T13:38:11.996Z,99.90
2019-01-11T13:40:18.232Z,99.90
2019-01-11T13:42:21.983Z,99.90
2019-01-11T13:44:26.081Z,99.90
2019-01-11T13:46:30.312Z,99.90
2019-01-11T13:48:34.485Z,99.90
2019-01-11T13:50:39.213Z,99.90
2019-01-11T13:52:42.907Z,99.90
2019-01-11T13:54:46.772Z,99.90
2019-01-11T13:56:50.663Z,99.90
2019-01-11T13:58:54.320Z,99.90
2019-01-11T14:00:58.127Z,99.90
2019-01-11T14:03:01.937Z,99.90
2019-01-11T14:05:07.714Z,99.90
2019-01-11T14:07:15.087Z,99.90
2019-01-11T14:09:19.225Z,99.90
2019-01-11T14:11:24.395Z,99.90
2019-01-11T14:13:28.371Z,99.90
2019-01-11T14:15:34.558Z,99.90
2019-01-11T14:17:38.438Z,99.90
2019-01-11T14:19:42.750Z,99.90
2019-01-11T14:21:46.564Z,99.90
2019-01-11T14:23:50.365Z,99.90
2019-01-11T14:25:54.295Z,99.90
2019-01-11T14:27:59.398Z,99.90
2019-01-11T14:30:03.473Z,99.90
2019-01-11T14:32:07.235Z,99.90
2019-01-11T14:34:15.051Z,99.90
2019-01-11T14:36:18.805Z,99.90
2019-01-11T14:38:22.584Z,99.90
2019-01-11T14:40:27.780Z,99.90
2019-01-11T14:42:31.527Z,99.90
2019-01-11T14:44:35.339Z,99.90
2019-01-11T14:46:39.088Z,99.90
2019-01-11T14:48:44.471Z,99.90
2019-01-11T14:50:48.242Z,99.90
2019-01-11T14:52:51.901Z,99.90
2019-01-11T14:54:55.620Z,99.90
2019-01-11T14:56:59.328Z,99.90
2019-01-11T14:59:03.179Z,99.90
2019-01-11T15:01:07.025Z,99.90
2019-01-11T15:03:12.351Z,99.90
2019-01-11T15:05:17.212Z,99.90
2019-01-11T15:07:20.853Z,99.90
2019-01-11T15:09:24.643Z,99.90
2019-01-11T15:11:29.343Z,99.90
2019-01-11T15:13:33.198Z,99.90
2019-01-11T15:15:37.592Z,99.90
2019-01-11T15:17:42.888Z,99.90
2019-01-11T15:19:46.735Z,99.90
2019-01-11T15:21:50.553Z,99.90
2019-01-11T15:23:54.333Z,99.90
2019-01-11T15:26:02.417Z,99.90
2019-01-11T15:28:06.161Z,99.90
2019-01-11T15:30:14.538Z,99.90
2019-01-11T15:32:19.957Z,99.90
2019-01-11T15:34:23.812Z,99.90
2019-01-11T15:36:27.438Z,99.90
2019-01-11T15:38:31.188Z,99.90
2019-01-11T15:40:36.933Z,99.90
2019-01-11T15:42:40.237Z,99.90
2019-01-11T15:44:44.001Z,99.90
2019-01-11T15:46:47.773Z,99.90
2019-01-11T15:48:51.411Z,99.90
2019-01-11T15:50:55.175Z,99.90
2019-01-11T15:53:00.542Z,99.90
2019-01-11T15:55:09.616Z,99.90
2019-01-11T15:57:13.355Z,99.90
2019-01-11T15:59:18.687Z,99.90
2019-01-11T16:01:23.523Z,99.90
2019-01-11T16:03:27.368Z,99.90
2019-01-11T16:05:31.093Z,99.90
2019-01-11T16:07:34.726Z,99.90
2019-01-11T16:09:57.456Z,99.90
2019-01-11T16:12:09.988Z,99.90
2019-01-11T16:14:19.479Z,99.90
2019-01-11T16:16:23.501Z,99.90
2019-01-11T16:18:27.264Z,99.90
2019-01-11T16:20:31.070Z,99.90
2019-01-11T16:22:39.586Z,99.90
2019-01-11T16:24:41.360Z,99.90
2019-01-11T16:26:45.074Z,99.90
2019-01-11T16:28:48.839Z,99.90
2019-01-11T16:30:52.534Z,99.90
2019-01-11T16:32:56.411Z,99.90
2019-01-11T16:35:00.177Z,99.90
2019-01-11T16:37:03.926Z,99.90
2019-01-11T16:39:08.815Z,99.90
2019-01-11T16:41:12.510Z,99.90
2019-01-11T16:43:17.317Z,99.90
2019-01-11T16:45:21.166Z,99.90
2019-01-11T16:47:24.909Z,99.90
2019-01-11T16:49:28.670Z,99.90
2019-01-11T16:51:32.330Z,99.90
2019-01-11T16:53:36.047Z,99.90
2019-01-11T16:55:39.721Z,99.90
2019-01-11T16:57:43.365Z,99.90
2019-01-11T16:59:47.043Z,99.90
2019-01-11T17:01:50.678Z,99.90
2019-01-11T17:03:56.312Z,99.90
2019-01-11T17:05:59.991Z,99.90
2019-01-11T17:08:03.858Z,99.90
2019-01-11T17:10:10.387Z,99.90
2019-01-11T17:12:14.128Z,99.90
2019-01-11T17:14:17.914Z,99.90
2019-01-11T17:16:21.870Z,99.90
2019-01-11T17:18:25.766Z,99.90
2019-01-11T17:20:29.705Z,99.90
2019-01-11T17:22:35.795Z,99.90
2019-01-11T17:24:39.464Z,99.90
2019-01-11T17:26:43.248Z,99.90
2019-01-11T17:28:47.013Z,99.90
2019-01-11T17:30:50.763Z,99.90
2019-01-11T17:32:54.977Z,99.90
2019-01-11T17:34:58.708Z,99.90
2019-01-11T17:37:02.766Z,99.90
2019-01-11T17:39:07.665Z,99.90
2019-01-11T17:41:11.718Z,99.90
2019-01-11T17:43:15.498Z,99.90
2019-01-11T17:45:19.200Z,99.90
2019-01-11T17:47:23.084Z,99.90
2019-01-11T17:49:26.846Z,99.90
2019-01-11T17:51:30.886Z,99.90
2019-01-11T17:53:34.618Z,99.90
2019-01-11T17:55:38.432Z,99.90
2019-01-11T17:57:42.097Z,99.90
2019-01-11T17:59:45.807Z,99.90
2019-01-11T18:01:49.464Z,99.90
2019-01-11T18:03:53.169Z,99.90
2019-01-11T18:05:56.839Z,99.90
2019-01-11T18:08:00.498Z,99.90
2019-01-11T18:10:06.477Z,99.90
2019-01-11T18:12:10.194Z,99.90
2019-01-11T18:14:13.979Z,99.90
2019-01-11T18:16:17.719Z,99.90
2019-01-11T18:18:21.483Z,99.90
2019-01-11T18:20:29.519Z,99.90
2019-01-11T18:22:33.313Z,99.90
2019-01-11T18:24:37.214Z,99.90
2019-01-11T18:26:40.948Z,99.90
2019-01-11T18:28:44.683Z,99.90
2019-01-11T18:30:48.459Z,99.90
2019-01-11T18:32:52.586Z,99.90
2019-01-11T18:34:56.855Z,99.90
2019-01-11T18:37:01.236Z,99.90
2019-01-11T18:39:08.170Z,99.90
2019-01-11T18:41:12.030Z,99.90
2019-01-11T18:43:15.701Z,99.90
2019-01-11T18:45:19.558Z,99.90
2019-01-11T18:47:23.912Z,99.90
2019-01-11T18:49:28.063Z,99.90
2019-01-11T18:51:32.405Z,99.90
2019-01-11T18:53:36.391Z,99.90
2019-01-11T18:55:40.598Z,99.90
2019-01-11T18:57:45.404Z,99.90
2019-01-11T18:59:49.579Z,99.90
2019-01-11T19:01:53.625Z,99.90
2019-01-11T19:03:57.415Z,99.90
2019-01-11T19:06:01.182Z,99.90
2019-01-11T19:08:04.926Z,99.90
2019-01-11T19:10:17.078Z,99.90
2019-01-11T19:12:21.084Z,99.90
2019-01-11T19:14:24.802Z,99.90
2019-01-11T19:16:28.513Z,99.90
2019-01-11T19:18:32.110Z,99.90
2019-01-11T19:20:36.261Z,99.90
2019-01-11T19:22:40.044Z,99.90
2019-01-11T19:24:43.842Z,99.90
2019-01-11T19:26:47.601Z,99.90
2019-01-11T19:28:51.334Z,99.90
2019-01-11T19:30:55.109Z,99.90
2019-01-11T19:32:58.897Z,99.90
2019-01-11T19:35:02.758Z,99.90
2019-01-11T19:37:06.601Z,99.90
2019-01-11T19:39:10.509Z,99.90
2019-01-11T19:41:14.331Z,99.90
2019-01-11T19:43:18.622Z,99.90
2019-01-11T19:45:22.755Z,99.90
2019-01-11T19:47:26.576Z,99.90
2019-01-11T19:49:30.358Z,99.90
2019-01-11T19:51:34.309Z,99.90
2019-01-11T19:53:38.099Z,99.90
2019-01-11T19:55:42.327Z,99.90
2019-01-11T19:57:46.122Z,99.90
2019-01-11T19:59:49.811Z,99.90
2019-01-11T20:01:53.756Z,99.90
2019-01-11T20:03:57.398Z,99.90
2019-01-11T20:06:01.252Z,99.90
2019-01-11T20:08:05.115Z,99.90
2019-01-11T20:10:11.885Z,99.90
2019-01-11T20:12:15.742Z,99.90
2019-01-11T20:14:19.463Z,99.90
2019-01-11T20:16:23.291Z,99.90
2019-01-11T20:18:27.025Z,99.90
2019-01-11T20:20:30.808Z,99.90
2019-01-11T20:22:34.658Z,99.90
2019-01-11T20:24:39.412Z,99.90
2019-01-11T20:26:43.345Z,99.90
2019-01-11T20:28:47.029Z,99.90
2019-01-11T20:30:50.711Z,99.90
2019-01-11T20:32:54.692Z,99.90
2019-01-11T20:34:58.429Z,99.90
2019-01-11T20:37:04.648Z,99.90
2019-01-11T20:39:09.696Z,99.90
2019-01-11T20:41:13.491Z,99.90
2019-01-11T20:43:17.317Z,99.90
2019-01-11T20:45:21.651Z,99.90
2019-01-11T20:47:25.247Z,99.90
2019-01-11T20:49:28.993Z,99.90
2019-01-11T20:51:32.673Z,99.90
2019-01-11T20:53:41.507Z,99.90
2019-01-11T20:55:41.830Z,99.90
2019-01-11T20:57:45.966Z,99.90
2019-01-11T20:59:49.779Z,99.90
2019-01-11T21:01:53.460Z,99.90
2019-01-11T21:03:57.244Z,99.90
2019-01-11T21:06:01.109Z,99.90
2019-01-11T21:08:05.061Z,99.90
2019-01-11T21:10:11.063Z,99.90
2019-01-11T21:12:14.845Z,99.90
2019-01-11T21:14:18.681Z,99.90
2019-01-11T21:16:22.628Z,99.90
2019-01-11T21:18:26.371Z,99.90
2019-01-11T21:20:30.009Z,99.90
2019-01-11T21:22:33.781Z,99.90
2019-01-11T21:24:37.511Z,99.90
2019-01-11T21:26:41.288Z,99.90
2019-01-11T21:28:45.001Z,99.90
2019-01-11T21:30:48.721Z,99.90
2019-01-11T21:32:52.743Z,99.90
2019-01-11T21:34:56.408Z,99.90
2019-01-11T21:37:00.036Z,99.90
2019-01-11T21:39:05.550Z,99.90
2019-01-11T21:41:09.277Z,99.90
2019-01-11T21:43:12.971Z,99.90
2019-01-11T21:45:17.616Z,99.90
2019-01-11T21:47:21.340Z,99.90
2019-01-11T21:49:24.954Z,99.90
2019-01-11T21:51:28.686Z,99.90
2019-01-11T21:53:32.564Z,99.90
2019-01-11T21:55:36.350Z,99.90
2019-01-11T21:57:40.090Z,99.90
2019-01-11T21:59:43.892Z,99.90
2019-01-11T22:01:47.554Z,99.90
2019-01-11T22:03:51.284Z,99.90
2019-01-11T22:05:55.015Z,99.90
2019-01-11T22:07:58.719Z,99.90
2019-01-11T22:10:02.563Z,99.90
2019-01-11T22:12:06.318Z,99.90
2019-01-11T22:14:10.116Z,99.90
2019-01-11T22:16:13.733Z,99.90
2019-01-11T22:18:17.495Z,99.90
2019-01-11T22:20:21.291Z,99.90
2019-01-11T22:22:24.904Z,99.90
2019-01-11T22:24:28.601Z,99.90
2019-01-11T22:26:32.333Z,99.90
2019-01-11T22:28:36.095Z,99.90
2019-01-11T22:30:39.767Z,99.90
2019-01-11T22:32:43.459Z,99.90
2019-01-11T22:34:47.142Z,99.90
2019-01-11T22:36:50.828Z,99.90
2019-01-11T22:38:54.566Z,99.90
2019-01-11T22:40:58.356Z,99.90
2019-01-11T22:43:02.057Z,99.90
2019-01-11T22:45:09.105Z,99.90
2019-01-11T22:47:13.299Z,99.90
2019-01-11T22:49:17.129Z,99.90
2019-01-11T22:51:20.788Z,99.90
2019-01-11T22:53:24.534Z,99.90
2019-01-11T22:55:28.373Z,99.90
2019-01-11T22:57:32.018Z,99.90
2019-01-11T22:59:35.810Z,99.90
2019-01-11T23:01:48.381Z,99.90
2019-01-11T23:03:52.055Z,99.90
2019-01-11T23:06:09.177Z,99.90
2019-01-11T23:08:15.049Z,99.90
2019-01-11T23:10:30.369Z,99.90
2019-01-11T23:12:37.173Z,99.90
2019-01-11T23:14:40.882Z,99.90
2019-01-11T23:16:44.803Z,99.90
2019-01-11T23:18:50.153Z,99.90
2019-01-11T23:20:53.997Z,99.90
2019-01-11T23:22:57.670Z,99.90
2019-01-11T23:25:01.437Z,99.90
2019-01-11T23:27:05.170Z,99.90
2019-01-11T23:29:08.822Z,99.90
2019-01-11T23:31:12.546Z,99.90
2019-01-11T23:33:16.213Z,99.90
2019-01-11T23:35:20.079Z,99.90
2019-01-11T23:37:23.916Z,99.90
2019-01-11T23:39:27.613Z,99.90
2019-01-11T23:41:31.321Z,99.90
2019-01-11T23:43:35.055Z,99.90
2019-01-11T23:45:38.929Z,99.90
2019-01-11T23:47:42.589Z,99.90
2019-01-11T23:49:46.327Z,99.90
2019-01-11T23:51:50.106Z,99.90
2019-01-11T23:53:54.003Z,99.90
2019-01-11T23:55:59.097Z,99.90
2019-01-11T23:58:02.742Z,99.90
